Time;durP1;ratioP1;P1;durP2;ratioP2;P2;SDS_P1;SDS_P2;PMS_P1;PMS_P2;Temp;Humidity;BMP_temperature;BMP_pressure;BME280_temperature;BME280_humidity;BME280_pressure;Samples;Min_cycle;Max_cycle;Signal;HPM_P1;HPM_P2
2021/03/13 00:00:37;;;;;;;45.92;35.45;;;205.40;2252.80;;;;;;5113893;27;20068;-75
2021/03/13 00:03:03;;;;;;;54.45;37.35;;;205.40;2252.80;;;;;;5088004;28;20388;-75
2021/03/13 00:05:34;;;;;;;51.45;39.30;;;205.40;2252.80;;;;;;5087342;28;20105;-75
2021/03/13 00:08:00;;;;;;;51.22;37.90;;;205.50;2252.80;;;;;;5084503;28;20044;-75
2021/03/13 00:10:26;;;;;;;50.75;37.25;;;205.50;2252.80;;;;;;5089076;28;20096;-75
2021/03/13 00:12:52;;;;;;;49.13;35.03;;;205.50;2252.80;;;;;;5089868;28;20047;-74
2021/03/13 00:15:18;;;;;;;46.00;33.55;;;205.50;2252.80;;;;;;5123134;28;20063;-74
2021/03/13 00:17:49;;;;;;;49.35;32.97;;;205.50;2252.80;;;;;;5079629;28;20107;-74
2021/03/13 00:20:17;;;;;;;46.08;34.70;;;205.50;2252.80;;;;;;5090006;28;20446;-75
2021/03/13 00:22:44;;;;;;;49.35;33.78;;;205.50;2252.80;;;;;;5082594;28;20477;-75
2021/03/13 00:25:11;;;;;;;51.75;37.85;;;205.50;2252.80;;;;;;5085539;28;20036;-75
2021/03/13 00:27:46;;;;;;;56.97;40.55;;;205.50;2252.80;;;;;;5090366;28;20082;-75
2021/03/13 00:30:12;;;;;;;55.90;39.97;;;205.50;2252.80;;;;;;5086943;28;20024;-75
2021/03/13 00:32:38;;;;;;;65.03;42.25;;;205.40;2252.80;;;;;;5084017;28;20023;-75
2021/03/13 00:35:04;;;;;;;57.38;38.00;;;205.40;2252.80;;;;;;5093970;28;20031;-75
2021/03/13 00:37:30;;;;;;;56.92;38.85;;;205.40;2252.80;;;;;;5091320;28;20028;-75
2021/03/13 00:39:56;;;;;;;57.60;38.72;;;205.40;2252.80;;;;;;5082775;28;20349;-75
2021/03/13 00:42:21;;;;;;;52.13;35.10;;;205.40;2252.80;;;;;;5094852;28;20103;-75
2021/03/13 00:44:47;;;;;;;51.15;33.90;;;205.40;2252.80;;;;;;5127891;27;20476;-74
2021/03/13 00:47:13;;;;;;;53.50;35.88;;;205.50;2252.80;;;;;;5086216;28;20024;-74
2021/03/13 00:49:39;;;;;;;49.95;35.53;;;205.50;2252.80;;;;;;5093508;28;20511;-75
2021/03/13 00:52:04;;;;;;;55.58;35.35;;;205.50;2252.80;;;;;;5094291;28;20056;-75
2021/03/13 00:54:30;;;;;;;50.63;35.72;;;205.60;2252.80;;;;;;5093385;28;20061;-75
2021/03/13 00:56:56;;;;;;;48.17;34.08;;;205.50;2252.80;;;;;;5094827;28;20093;-76
2021/03/13 00:59:22;;;;;;;53.25;34.72;;;205.50;2252.80;;;;;;5094578;28;20066;-76
2021/03/13 01:01:47;;;;;;;48.88;35.55;;;205.50;2252.80;;;;;;5089325;28;20392;-76
2021/03/13 01:04:13;;;;;;;52.25;38.88;;;205.60;2252.80;;;;;;5084914;28;20028;-76
2021/03/13 01:06:39;;;;;;;53.45;37.58;;;205.60;2252.80;;;;;;5127179;27;20056;-76
2021/03/13 01:09:06;;;;;;;64.90;41.85;;;205.60;2252.80;;;;;;5094226;28;20020;-75
2021/03/13 01:11:32;;;;;;;57.30;37.75;;;205.60;2252.80;;;;;;5081966;28;20029;-76
2021/03/13 01:13:57;;;;;;;51.75;38.35;;;205.60;2252.80;;;;;;5090282;28;20032;-76
2021/03/13 01:16:23;;;;;;;52.40;37.10;;;205.60;2252.80;;;;;;5087792;28;20020;-75
2021/03/13 01:18:49;;;;;;;52.05;36.75;;;205.70;2252.80;;;;;;5092930;28;20357;-74
2021/03/13 01:21:15;;;;;;;60.33;42.00;;;205.70;2252.80;;;;;;5092557;28;20045;-75
2021/03/13 01:23:40;;;;;;;57.28;39.95;;;205.60;2252.80;;;;;;5094295;28;20724;-75
2021/03/13 01:26:06;;;;;;;61.22;42.17;;;205.60;2252.80;;;;;;5085778;28;20090;-75
2021/03/13 01:28:32;;;;;;;66.00;42.30;;;205.70;2252.80;;;;;;5087239;28;20123;-75
2021/03/13 01:30:58;;;;;;;65.15;42.88;;;205.70;2252.80;;;;;;5092346;28;20050;-74
2021/03/13 01:33:24;;;;;;;52.33;39.78;;;205.70;2252.80;;;;;;5087634;28;20234;-75
2021/03/13 01:35:49;;;;;;;55.50;38.90;;;205.70;2252.80;;;;;;5085925;28;20452;-75
2021/03/13 01:38:15;;;;;;;53.28;38.28;;;205.70;2252.80;;;;;;5084129;28;20020;-75
2021/03/13 01:40:41;;;;;;;55.15;38.95;;;205.60;2252.80;;;;;;5083869;28;20103;-75
2021/03/13 01:43:07;;;;;;;54.65;37.80;;;205.70;2252.80;;;;;;5086857;28;20112;-75
2021/03/13 01:45:32;;;;;;;55.53;38.60;;;205.70;2252.80;;;;;;5085895;28;20035;-75
2021/03/13 01:47:58;;;;;;;49.20;33.88;;;205.70;2252.80;;;;;;5084702;28;20073;-74
2021/03/13 01:50:24;;;;;;;52.42;36.45;;;205.70;2252.80;;;;;;5091975;28;20020;-75
2021/03/13 01:52:50;;;;;;;51.20;36.80;;;205.70;2252.80;;;;;;5093097;28;20044;-75
2021/03/13 01:55:17;;;;;;;53.55;38.42;;;205.70;2252.80;;;;;;5087017;28;20027;-74
2021/03/13 01:57:43;;;;;;;49.85;36.33;;;205.70;2252.80;;;;;;5090614;28;20445;-75
2021/03/13 02:00:13;;;;;;;46.00;34.70;;;205.60;2252.80;;;;;;5092642;28;20052;-75
2021/03/13 02:02:39;;;;;;;61.30;38.50;;;205.60;2252.80;;;;;;5076216;28;20016;-74
2021/03/13 02:05:13;;;;;;;48.47;33.85;;;205.70;2252.80;;;;;;5083534;28;20059;-75
2021/03/13 02:07:49;;;;;;;47.67;34.55;;;205.70;2252.80;;;;;;5092056;28;20034;-74
2021/03/13 02:10:37;;;;;;;39.95;32.03;;;205.70;2252.80;;;;;;5093244;28;20365;-74
2021/03/13 02:13:21;;;;;;;42.17;32.33;;;205.70;2252.80;;;;;;5101845;28;20119;-74
2021/03/13 02:15:47;;;;;;;39.58;29.63;;;205.70;2252.80;;;;;;5081119;28;20024;-74
2021/03/13 02:18:36;;;;;;;40.05;29.55;;;205.70;2252.80;;;;;;5091842;28;20031;-74
2021/03/13 02:21:04;;;;;;;35.97;27.50;;;205.70;2252.80;;;;;;5080374;28;20074;-74
2021/03/13 02:23:35;;;;;;;39.88;28.65;;;205.70;2252.80;;;;;;5090934;28;20114;-74
2021/03/13 02:26:19;;;;;;;33.70;26.45;;;205.70;2252.80;;;;;;5072815;28;20431;-74
2021/03/13 02:29:23;;;;;;;35.88;26.55;;;205.70;2252.80;;;;;;5085580;28;20024;-74
2021/03/13 02:31:52;;;;;;;34.38;26.67;;;205.70;2252.80;;;;;;5085290;28;20031;-74
2021/03/13 02:34:26;;;;;;;31.15;24.95;;;205.60;2252.80;;;;;;5084833;28;20037;-74
2021/03/13 02:36:54;;;;;;;34.05;25.95;;;205.60;2252.80;;;;;;5084434;28;20028;-74
2021/03/13 02:39:22;;;;;;;28.88;23.67;;;205.60;2252.80;;;;;;5092255;28;20945;-74
2021/03/13 02:41:52;;;;;;;28.27;22.10;;;205.60;2252.80;;;;;;5092060;28;20544;-74
2021/03/13 02:44:20;;;;;;;30.63;21.38;;;205.60;2252.80;;;;;;5085304;28;20028;-75
2021/03/13 02:46:48;;;;;;;27.13;21.10;;;205.60;2252.80;;;;;;5090418;28;20020;-74
2021/03/13 02:49:15;;;;;;;27.23;21.85;;;205.60;2252.80;;;;;;5090728;28;20031;-74
2021/03/13 02:51:42;;;;;;;27.42;19.73;;;205.50;2252.80;;;;;;5091134;28;20059;-74
2021/03/13 02:54:10;;;;;;;26.48;18.30;;;205.60;2252.80;;;;;;5084568;28;20506;-73
2021/03/13 02:56:37;;;;;;;22.52;15.90;;;205.50;2252.80;;;;;;5087668;28;20024;-73
2021/03/13 02:59:04;;;;;;;19.65;13.70;;;205.50;2252.80;;;;;;5082774;28;20032;-74
2021/03/13 03:01:31;;;;;;;18.92;14.80;;;205.50;2252.80;;;;;;5091933;28;20085;-74
2021/03/13 03:03:58;;;;;;;23.17;16.77;;;205.40;2252.80;;;;;;5085966;28;20020;-74
2021/03/13 03:06:25;;;;;;;29.73;19.38;;;205.40;2252.80;;;;;;5092490;28;20055;-74
2021/03/13 03:08:51;;;;;;;27.60;19.15;;;205.40;2252.80;;;;;;5091632;28;20031;-74
2021/03/13 03:11:22;;;;;;;31.10;21.33;;;205.40;2252.80;;;;;;5076650;28;20016;-74
2021/03/13 03:13:49;;;;;;;28.55;20.27;;;205.40;2252.80;;;;;;5081279;28;20111;-74
2021/03/13 03:16:16;;;;;;;18.33;13.02;;;205.40;2252.80;;;;;;5071534;28;20024;-74
2021/03/13 03:18:41;;;;;;;17.35;12.05;;;205.30;2252.80;;;;;;5076755;28;20099;-74
2021/03/13 03:21:08;;;;;;;15.48;11.48;;;205.20;2252.80;;;;;;5081487;28;20060;-74
2021/03/13 03:23:37;;;;;;;17.23;11.75;;;205.20;2252.80;;;;;;5090776;28;20369;-74
2021/03/13 03:26:02;;;;;;;16.08;10.88;;;205.20;2252.80;;;;;;5079735;28;20024;-74
2021/03/13 03:28:28;;;;;;;15.32;11.23;;;205.20;2252.80;;;;;;5071666;28;20032;-74
2021/03/13 03:30:54;;;;;;;16.60;10.50;;;205.10;2252.80;;;;;;5071454;28;20054;-74
2021/03/13 03:33:21;;;;;;;14.40;10.02;;;205.10;2252.80;;;;;;5072652;28;20025;-75
2021/03/13 03:35:47;;;;;;;12.90;10.07;;;205.10;2252.80;;;;;;5090940;28;20079;-75
2021/03/13 03:38:13;;;;;;;13.95;9.55;;;205.10;2252.80;;;;;;5077861;28;20542;-74
2021/03/13 03:40:41;;;;;;;13.75;9.07;;;205.10;2252.80;;;;;;5090328;28;20829;-74
2021/03/13 03:43:12;;;;;;;13.20;9.57;;;205.20;2252.80;;;;;;5113034;27;20024;-75
2021/03/13 03:45:41;;;;;;;11.98;8.55;;;205.20;2252.80;;;;;;5085827;28;20016;-74
2021/03/13 03:48:11;;;;;;;10.43;7.93;;;205.20;2252.80;;;;;;5124322;27;20029;-74
2021/03/13 03:50:39;;;;;;;13.40;8.50;;;205.20;2252.80;;;;;;5124601;27;20032;-74
2021/03/13 03:53:11;;;;;;;13.98;8.82;;;205.10;2252.80;;;;;;5124178;27;20066;-74
2021/03/13 03:55:40;;;;;;;12.32;8.75;;;205.20;2252.80;;;;;;5076513;28;20066;-75
2021/03/13 03:58:08;;;;;;;14.40;9.10;;;205.20;2252.80;;;;;;5091228;28;20028;-74
2021/03/13 04:00:35;;;;;;;13.07;9.07;;;205.30;2252.80;;;;;;5095518;28;20024;-75
2021/03/13 04:03:06;;;;;;;14.55;9.32;;;205.30;2252.80;;;;;;5094754;28;20047;-75
2021/03/13 04:05:33;;;;;;;13.52;8.85;;;205.30;2252.80;;;;;;5114146;27;20052;-74
2021/03/13 04:07:59;;;;;;;12.70;9.07;;;205.30;2252.80;;;;;;5095225;28;20013;-74
2021/03/13 04:10:26;;;;;;;13.65;9.70;;;205.20;2252.80;;;;;;5090370;28;20019;-74
2021/03/13 04:12:53;;;;;;;14.38;10.15;;;205.30;2252.80;;;;;;5094210;28;20078;-74
2021/03/13 04:15:20;;;;;;;14.25;9.55;;;205.30;2252.80;;;;;;5091492;28;20140;-74
2021/03/13 04:17:46;;;;;;;14.80;9.00;;;205.30;2252.80;;;;;;5094871;28;20369;-74
2021/03/13 04:20:12;;;;;;;13.43;10.50;;;205.30;2252.80;;;;;;5090838;28;20123;-74
2021/03/13 04:22:39;;;;;;;12.82;8.70;;;205.30;2252.80;;;;;;5093857;28;20036;-74
2021/03/13 04:25:07;;;;;;;13.82;9.38;;;205.30;2252.80;;;;;;5094051;28;20028;-74
2021/03/13 04:27:33;;;;;;;12.82;8.07;;;205.50;2252.80;;;;;;5127854;27;20074;-73
2021/03/13 04:29:59;;;;;;;11.10;8.82;;;205.30;2252.80;;;;;;5128377;27;20035;-74
2021/03/13 04:32:26;;;;;;;13.65;9.48;;;205.20;2252.80;;;;;;5093151;28;20038;-74
2021/03/13 04:34:53;;;;;;;11.95;9.02;;;205.20;2252.80;;;;;;5093392;28;20101;-74
2021/03/13 04:37:21;;;;;;;13.77;10.02;;;205.30;2252.80;;;;;;5094217;28;20040;-75
2021/03/13 04:39:48;;;;;;;15.23;9.55;;;205.20;2252.80;;;;;;5092276;28;20064;-74
2021/03/13 04:42:14;;;;;;;13.90;8.40;;;205.20;2252.80;;;;;;5093830;28;20121;-74
2021/03/13 04:44:40;;;;;;;12.88;8.60;;;205.20;2252.80;;;;;;5091789;28;20040;-74
2021/03/13 04:47:06;;;;;;;13.80;8.18;;;205.10;2252.80;;;;;;5094585;28;20507;-74
2021/03/13 04:49:32;;;;;;;13.15;9.10;;;205.10;2252.80;;;;;;5093282;28;20036;-74
2021/03/13 04:52:01;;;;;;;14.75;9.73;;;205.10;2252.80;;;;;;5094841;28;20040;-74
2021/03/13 04:54:28;;;;;;;16.73;11.77;;;205.10;2252.80;;;;;;5093074;28;20127;-74
2021/03/13 04:56:53;;;;;;;15.63;10.88;;;205.20;2252.80;;;;;;5089110;28;20399;-75
2021/03/13 04:59:19;;;;;;;16.25;9.93;;;205.20;2252.80;;;;;;5094539;28;20031;-74
2021/03/13 05:01:46;;;;;;;13.50;8.50;;;205.20;2252.80;;;;;;5092750;28;20051;-74
2021/03/13 05:04:11;;;;;;;13.98;9.65;;;205.20;2252.80;;;;;;5090953;28;20107;-74
2021/03/13 05:06:37;;;;;;;12.55;8.75;;;205.20;2252.80;;;;;;5124186;27;20103;-74
2021/03/13 05:09:03;;;;;;;12.88;9.35;;;205.20;2252.80;;;;;;5093060;28;20024;-74
2021/03/13 05:11:29;;;;;;;14.98;10.25;;;205.20;2252.80;;;;;;5092712;28;20031;-74
2021/03/13 05:13:55;;;;;;;13.85;8.70;;;205.20;2252.80;;;;;;5093854;28;20046;-75
2021/03/13 05:16:21;;;;;;;15.73;8.65;;;205.20;2252.80;;;;;;5084531;28;20111;-75
2021/03/13 05:18:47;;;;;;;9.90;8.05;;;205.20;2252.80;;;;;;5117095;27;20020;-75
2021/03/13 05:21:13;;;;;;;16.20;9.27;;;205.20;2252.80;;;;;;5087959;28;20036;-75
2021/03/13 05:23:41;;;;;;;17.45;11.63;;;205.20;2252.80;;;;;;5079257;28;20143;-74
2021/03/13 05:26:07;;;;;;;18.92;11.05;;;205.30;2252.80;;;;;;5080136;28;20036;-75
2021/03/13 05:28:33;;;;;;;14.48;10.00;;;205.30;2252.80;;;;;;5086988;28;20032;-74
2021/03/13 05:30:59;;;;;;;16.80;10.75;;;205.30;2252.80;;;;;;5091193;28;20039;-75
2021/03/13 05:33:25;;;;;;;17.20;11.05;;;205.30;2252.80;;;;;;5091145;28;20036;-75
2021/03/13 05:35:51;;;;;;;20.05;11.35;;;205.20;2252.80;;;;;;5091080;28;20032;-75
2021/03/13 05:38:16;;;;;;;18.17;10.88;;;205.20;2252.80;;;;;;5093785;28;20031;-75
2021/03/13 05:40:42;;;;;;;16.08;10.35;;;205.20;2252.80;;;;;;5087211;28;20056;-75
2021/03/13 05:43:11;;;;;;;16.77;10.88;;;205.20;2252.80;;;;;;5093710;28;20711;-75
2021/03/13 05:45:39;;;;;;;15.20;11.10;;;205.20;2252.80;;;;;;5091388;28;20037;-75
2021/03/13 05:48:10;;;;;;;18.55;11.20;;;205.30;2252.80;;;;;;5093300;28;20017;-75
2021/03/13 05:50:36;;;;;;;16.35;10.57;;;205.30;2252.80;;;;;;5090761;28;20038;-74
2021/03/13 05:53:04;;;;;;;14.18;10.80;;;205.40;2252.80;;;;;;5093409;28;21630;-74
2021/03/13 05:55:30;;;;;;;19.02;12.40;;;205.30;2252.80;;;;;;5092949;28;20065;-75
2021/03/13 05:57:56;;;;;;;18.92;11.90;;;205.30;2252.80;;;;;;5093756;28;20020;-75
2021/03/13 06:00:23;;;;;;;20.27;12.73;;;205.20;2252.80;;;;;;5093132;28;20027;-75
2021/03/13 06:02:50;;;;;;;19.95;12.82;;;205.20;2252.80;;;;;;5091875;28;20021;-75
2021/03/13 06:05:16;;;;;;;15.68;11.30;;;205.20;2252.80;;;;;;5092468;28;20051;-74
2021/03/13 06:07:42;;;;;;;16.75;11.73;;;205.20;2252.80;;;;;;5086588;28;20017;-74
2021/03/13 06:10:09;;;;;;;16.35;11.65;;;205.20;2252.80;;;;;;5092180;28;20044;-74
2021/03/13 06:12:35;;;;;;;21.88;13.43;;;205.20;2252.80;;;;;;5091862;28;20029;-74
2021/03/13 06:15:00;;;;;;;20.92;14.30;;;205.20;2252.80;;;;;;5087441;28;20051;-74
2021/03/13 06:17:26;;;;;;;20.08;13.65;;;205.20;2252.80;;;;;;5092607;28;20669;-74
2021/03/13 06:19:53;;;;;;;20.65;13.70;;;205.20;2252.80;;;;;;5091950;28;20399;-74
2021/03/13 06:22:42;;;;;;;16.70;13.48;;;205.30;2252.80;;;;;;5087141;28;20622;-74
2021/03/13 06:25:14;;;;;;;18.73;14.13;;;205.30;2252.80;;;;;;5080887;28;20052;-74
2021/03/13 06:27:45;;;;;;;25.75;17.50;;;205.30;2252.80;;;;;;5082007;28;20099;-74
2021/03/13 06:30:13;;;;;;;24.02;19.00;;;205.30;2252.80;;;;;;5079686;28;20381;-74
2021/03/13 06:32:40;;;;;;;36.38;28.80;;;205.40;2252.80;;;;;;5082795;28;20085;-74
2021/03/13 06:35:28;;;;;;;42.03;31.45;;;205.50;2252.80;;;;;;5088663;28;20444;-74
2021/03/13 06:38:12;;;;;;;36.78;24.10;;;205.60;2252.80;;;;;;5085548;28;20073;-75
2021/03/13 06:40:38;;;;;;;30.30;20.42;;;205.70;2252.80;;;;;;5092679;28;20504;-74
2021/03/13 06:43:29;;;;;;;24.63;17.98;;;205.70;2252.80;;;;;;5085284;28;20503;-74
2021/03/13 06:46:05;;;;;;;26.92;18.98;;;205.70;2252.80;;;;;;5087924;28;20430;-74
2021/03/13 06:48:35;;;;;;;17.88;12.80;;;230.40;2252.80;;;;;;5091738;28;20024;-74
2021/03/13 06:51:30;;;;;;;14.68;10.60;;;230.50;2252.80;;;;;;5087184;28;20903;-75
2021/03/13 06:54:11;;;;;;;16.15;10.07;;;230.70;2252.80;;;;;;5079946;28;20036;-74
2021/03/13 06:56:43;;;;;;;12.75;8.40;;;230.90;2252.80;;;;;;5091114;28;20031;-75
2021/03/13 06:59:30;;;;;;;11.45;8.93;;;231.00;2252.80;;;;;;5090890;28;20020;-74
2021/03/13 07:02:01;;;;;;;11.38;7.30;;;231.10;2252.80;;;;;;5090499;28;20442;-74
2021/03/13 07:04:35;;;;;;;9.15;7.13;;;231.30;2252.80;;;;;;5091255;28;20480;-74
2021/03/13 07:07:01;;;;;;;10.45;7.65;;;256.10;2252.80;;;;;;5091406;28;20020;-74
2021/03/13 07:10:00;;;;;;;12.25;8.93;;;256.20;2252.80;;;;;;5091702;28;20028;-74
2021/03/13 07:12:36;;;;;;;12.10;8.60;;;256.40;2252.80;;;;;;5069487;28;20543;-74
2021/03/13 07:15:11;;;;;;;11.25;7.78;;;256.60;2201.60;;;;;;5059635;28;20044;-74
2021/03/13 07:17:40;;;;;;;6.15;4.43;;;256.90;2176.00;;;;;;5052861;28;20047;-74
2021/03/13 07:20:07;;;;;;;10.73;7.80;;;281.60;2099.20;;;;;;5053149;28;20029;-74
2021/03/13 07:22:33;;;;;;;8.85;5.32;;;281.80;2073.60;;;;;;5057018;28;20147;-74
2021/03/13 07:25:01;;;;;;;7.13;5.22;;;281.90;2099.20;;;;;;5052778;28;20055;-74
2021/03/13 07:27:32;;;;;;;9.15;5.88;;;282.30;2048.00;;;;;;5069668;28;20096;-74
2021/03/13 07:29:59;;;;;;;5.68;4.13;;;282.50;2022.40;;;;;;5069032;28;20033;-74
2021/03/13 07:32:27;;;;;;;6.32;4.28;;;282.30;2048.00;;;;;;5069144;28;20534;-74
2021/03/13 07:35:02;;;;;;;6.80;3.85;;;307.30;1971.20;;;;;;5069262;28;20580;-74
2021/03/13 07:37:31;;;;;;;6.60;4.22;;;307.50;1920.00;;;;;;5062508;28;20048;-74
2021/03/13 07:39:59;;;;;;;5.55;4.10;;;307.80;1920.00;;;;;;5074721;28;20029;-74
2021/03/13 07:42:26;;;;;;;6.85;5.10;;;307.90;1920.00;;;;;;5068424;28;20070;-74
2021/03/13 07:44:52;;;;;;;6.97;5.07;;;308.10;1894.40;;;;;;5044572;28;20548;-74
2021/03/13 07:47:19;;;;;;;9.15;5.97;;;333.00;1894.40;;;;;;5072230;28;20528;-74
2021/03/13 07:49:45;;;;;;;11.18;7.57;;;333.10;1920.00;;;;;;5120206;28;20020;-74
2021/03/13 07:52:12;;;;;;;9.23;6.40;;;332.90;1920.00;;;;;;5089285;28;20093;-74
2021/03/13 07:55:00;;;;;;;9.85;7.15;;;332.80;1868.80;;;;;;5086703;28;20453;-74
2021/03/13 07:57:26;;;;;;;8.70;7.38;;;333.00;1894.40;;;;;;5090403;28;20111;-74
2021/03/13 07:59:53;;;;;;;11.23;8.90;;;332.90;1920.00;;;;;;5084556;28;20115;-74
2021/03/13 08:02:31;;;;;;;9.77;8.25;;;308.00;1945.60;;;;;;5087758;28;20040;-74
2021/03/13 08:05:00;;;;;;;8.07;6.68;;;307.90;1945.60;;;;;;5088367;28;20024;-74
2021/03/13 08:07:28;;;;;;;8.63;7.20;;;307.80;1971.20;;;;;;5085916;28;20030;-74
2021/03/13 08:09:54;;;;;;;9.43;7.70;;;307.90;1971.20;;;;;;5088242;28;20047;-74
2021/03/13 08:12:41;;;;;;;10.23;7.53;;;308.00;2022.40;;;;;;5120683;28;20028;-74
2021/03/13 08:15:32;;;;;;;;;;;308.10;2022.40;;;;;;5120706;27;20027;-74
2021/03/13 08:17:59;;;;;;;11.32;8.60;;;333.20;1996.80;;;;;;5085483;28;19912;-74
2021/03/13 08:20:30;;;;;;;10.32;8.73;;;332.90;1996.80;;;;;;5086495;28;20031;-74
2021/03/13 08:23:19;;;;;;;11.13;10.02;;;308.00;1971.20;;;;;;5085093;28;20027;-75
2021/03/13 08:25:56;;;;;;;18.55;14.90;;;307.80;1996.80;;;;;;5050038;28;20127;-75
2021/03/13 08:28:49;;;;;;;16.15;13.60;;;307.90;2048.00;;;;;;5065862;28;20029;-74
2021/03/13 08:31:32;;;;;;;12.32;9.70;;;333.00;1996.80;;;;;;5043613;28;20033;-74
2021/03/13 08:34:18;;;;;;;13.88;9.85;;;333.20;1894.40;;;;;;5058766;28;20032;-74
2021/03/13 08:36:47;;;;;;;14.85;11.43;;;333.70;1817.60;;;;;;5068478;28;20028;-74
2021/03/13 08:39:18;;;;;;;26.00;18.13;;;333.50;1843.20;;;;;;5052046;28;20116;-74
2021/03/13 08:41:43;;;;;;;29.70;16.55;;;333.60;1920.00;;;;;;5068714;28;20020;-74
2021/03/13 08:44:13;;;;;;;76.38;47.83;;;333.60;1894.40;;;;;;5068026;28;20048;-74
2021/03/13 08:46:41;;;;;;;16.67;10.73;;;358.40;1868.80;;;;;;5071482;28;20112;-75
2021/03/13 08:49:07;;;;;;;19.63;14.18;;;358.90;1868.80;;;;;;5071878;28;20039;-75
2021/03/13 08:51:34;;;;;;;15.77;11.32;;;359.30;1817.60;;;;;;5053919;28;20131;-75
2021/03/13 08:54:00;;;;;;;20.23;17.17;;;359.10;1792.00;;;;;;5069657;28;20028;-74
2021/03/13 08:56:43;;;;;;;29.85;26.85;;;384.10;1766.40;;;;;;5071504;28;20029;-74
2021/03/13 08:59:16;;;;;;;12.70;11.20;;;384.10;1740.80;;;;;;5055392;28;20688;-74
2021/03/13 09:01:45;;;;;;;7.95;6.97;;;384.20;1715.20;;;;;;5069839;28;20036;-74
2021/03/13 09:04:11;;;;;;;14.70;9.45;;;384.20;1689.60;;;;;;5092184;28;20070;-75
2021/03/13 09:06:41;;;;;;;15.65;9.90;;;384.40;1715.20;;;;;;5094118;28;20545;-75
2021/03/13 09:09:16;;;;;;;10.75;9.05;;;384.70;1740.80;;;;;;5092101;28;20024;-75
2021/03/13 09:11:43;;;;;;;12.35;9.18;;;384.40;1740.80;;;;;;5086870;28;20052;-75
2021/03/13 09:14:12;;;;;;;20.77;10.77;;;384.80;1689.60;;;;;;5083411;28;20404;-75
2021/03/13 09:16:40;;;;;;;13.18;8.80;;;410.10;1664.00;;;;;;5091117;28;20032;-75
2021/03/13 09:19:13;;;;;;;15.30;9.82;;;410.10;1638.40;;;;;;5090674;28;20533;-75
2021/03/13 09:21:41;;;;;;;12.68;9.30;;;409.80;1664.00;;;;;;5121789;27;20017;-75
2021/03/13 09:24:09;;;;;;;21.33;9.90;;;409.80;1612.80;;;;;;5090941;28;20097;-75
2021/03/13 09:26:35;;;;;;;11.63;7.68;;;409.80;1638.40;;;;;;5090387;28;20028;-76
2021/03/13 09:29:01;;;;;;;10.40;7.47;;;435.30;1536.00;;;;;;5121531;27;20032;-75
2021/03/13 09:31:28;;;;;;;11.30;8.48;;;410.50;1536.00;;;;;;5090862;28;20051;-76
2021/03/13 09:34:12;;;;;;;12.90;10.05;;;410.40;1612.80;;;;;;5089572;28;20373;-75
2021/03/13 09:36:38;;;;;;;8.13;6.97;;;410.30;1587.20;;;;;;5090889;28;20044;-75
2021/03/13 09:39:04;;;;;;;13.48;6.65;;;435.60;1459.20;;;;;;5126246;27;20835;-75
2021/03/13 09:41:30;;;;;;;12.02;8.50;;;435.40;1484.80;;;;;;5121936;27;20040;-75
2021/03/13 09:43:56;;;;;;;9.77;7.60;;;435.80;1459.20;;;;;;5091513;28;20036;-75
2021/03/13 09:46:24;;;;;;;17.15;10.13;;;435.90;1484.80;;;;;;5089913;28;20057;-76
2021/03/13 09:48:50;;;;;;;17.08;8.10;;;435.70;1484.80;;;;;;5084906;28;20103;-76
2021/03/13 09:51:17;;;;;;;12.13;8.60;;;436.00;1459.20;;;;;;5091369;28;20161;-76
2021/03/13 09:53:43;;;;;;;17.35;14.40;;;486.60;1382.40;;;;;;5089170;28;20044;-76
2021/03/13 09:56:09;;;;;;;9.60;7.82;;;461.40;1382.40;;;;;;5091802;28;20028;-76
2021/03/13 09:58:35;;;;;;;8.77;7.15;;;460.90;1408.00;;;;;;5089413;28;20035;-73
2021/03/13 10:01:02;;;;;;;10.82;7.65;;;461.60;1356.80;;;;;;5089489;28;20036;-75
2021/03/13 10:03:28;;;;;;;20.55;8.23;;;486.60;1331.20;;;;;;5121188;27;20496;-75
2021/03/13 10:05:55;;;;;;;10.52;8.00;;;486.90;1280.00;;;;;;5088340;28;20036;-76
2021/03/13 10:08:31;;;;;;;8.38;6.63;;;486.40;1280.00;;;;;;5092713;28;20158;-75
2021/03/13 10:11:02;;;;;;;8.88;6.38;;;486.70;1228.80;;;;;;5091248;28;20054;-75
2021/03/13 10:13:29;;;;;;;8.80;7.90;;;512.00;1152.00;;;;;;5087539;28;20399;-76
2021/03/13 10:15:55;;;;;;;8.90;6.40;;;512.60;1152.00;;;;;;5091435;28;20024;-75
2021/03/13 10:18:28;;;;;;;15.90;7.65;;;537.90;1100.80;;;;;;5090076;28;20507;-75
2021/03/13 10:20:59;;;;;;;7.45;6.03;;;537.60;1152.00;;;;;;5089717;28;20127;-75
2021/03/13 10:23:32;;;;;;;8.63;5.72;;;537.90;1126.40;;;;;;5090174;28;20170;-75
2021/03/13 10:26:06;;;;;;;9.23;6.47;;;563.20;1100.80;;;;;;5092462;28;20020;-75
2021/03/13 10:28:32;;;;;;;8.95;6.57;;;538.50;1049.60;;;;;;5086652;28;20024;-75
2021/03/13 10:31:13;;;;;;;10.43;7.55;;;563.70;1049.60;;;;;;5106850;28;20024;-76
2021/03/13 10:33:42;;;;;;;8.85;7.18;;;589.00;998.40;;;;;;5106968;28;20032;-76
2021/03/13 10:36:08;;;;;;;7.03;5.13;;;589.30;998.40;;;;;;5087319;28;20038;-76
2021/03/13 10:38:43;;;;;;;7.90;5.38;;;614.40;921.60;;;;;;5089594;28;20039;-76
2021/03/13 10:41:10;;;;;;;7.18;5.65;;;614.70;896.00;;;;;;5087956;28;20028;-76
2021/03/13 10:43:38;;;;;;;10.30;5.03;;;615.00;896.00;;;;;;5090636;28;20059;-76
2021/03/13 10:46:10;;;;;;;6.80;5.32;;;614.70;896.00;;;;;;5090804;28;20429;-76
2021/03/13 10:48:50;;;;;;;8.80;4.85;;;614.60;870.40;;;;;;5085478;28;20029;-75
2021/03/13 10:51:30;;;;;;;7.53;5.88;;;563.40;947.20;;;;;;5088327;28;20024;-76
2021/03/13 10:53:58;;;;;;;8.30;5.00;;;512.90;972.80;;;;;;5123732;27;20035;-75
2021/03/13 10:56:23;;;;;;;8.57;5.25;;;512.20;1049.60;;;;;;5090666;28;20107;-75
2021/03/13 10:58:52;;;;;;;12.32;7.60;;;487.20;1075.20;;;;;;5091082;28;20112;-75
2021/03/13 11:01:19;;;;;;;11.13;8.13;;;486.80;1100.80;;;;;;5089111;28;20028;-75
2021/03/13 11:03:47;;;;;;;9.48;5.93;;;461.70;1177.60;;;;;;5087057;28;20082;-76
2021/03/13 11:06:14;;;;;;;9.00;7.18;;;461.30;1177.60;;;;;;5090775;28;20032;-76
2021/03/13 11:08:40;;;;;;;11.32;7.22;;;461.10;1177.60;;;;;;5089027;28;20400;-74
2021/03/13 11:11:06;;;;;;;9.30;6.60;;;460.80;1203.20;;;;;;5092036;28;20487;-75
2021/03/13 11:13:32;;;;;;;7.55;5.40;;;460.80;1228.80;;;;;;5091353;28;20103;-75
2021/03/13 11:15:58;;;;;;;9.23;6.10;;;486.90;1126.40;;;;;;5088961;28;20384;-75
2021/03/13 11:18:24;;;;;;;16.90;5.80;;;538.30;998.40;;;;;;5091732;28;20020;-75
2021/03/13 11:20:50;;;;;;;9.98;8.18;;;564.10;972.80;;;;;;5084616;28;20392;-76
2021/03/13 11:23:16;;;;;;;9.00;6.68;;;614.40;921.60;;;;;;5090441;28;20041;-75
2021/03/13 11:25:42;;;;;;;7.72;6.40;;;614.80;870.40;;;;;;5092012;28;20066;-76
2021/03/13 11:28:08;;;;;;;7.47;5.53;;;614.90;870.40;;;;;;5090245;28;20056;-75
2021/03/13 11:30:35;;;;;;;6.97;5.20;;;640.40;793.60;;;;;;5086595;28;20040;-76
2021/03/13 11:33:01;;;;;;;7.35;5.43;;;640.70;768.00;;;;;;5090073;28;20036;-75
2021/03/13 11:35:27;;;;;;;7.85;6.47;;;666.10;768.00;;;;;;5089558;28;20056;-76
2021/03/13 11:37:55;;;;;;;8.25;6.32;;;691.50;742.40;;;;;;5091074;28;20070;-75
2021/03/13 11:40:23;;;;;;;7.63;5.95;;;666.30;768.00;;;;;;5088819;28;20107;-75
2021/03/13 11:42:51;;;;;;;10.35;7.28;;;692.00;742.40;;;;;;5089077;28;20043;-76
2021/03/13 11:45:18;;;;;;;6.50;5.43;;;691.30;742.40;;;;;;5088614;28;20111;-76
2021/03/13 11:47:44;;;;;;;7.03;5.43;;;640.40;793.60;;;;;;5089876;28;20093;-76
2021/03/13 11:50:14;;;;;;;7.53;5.05;;;614.80;819.20;;;;;;5090272;28;20428;-76
2021/03/13 11:52:40;;;;;;;7.05;5.15;;;614.40;896.00;;;;;;5089221;28;20118;-76
2021/03/13 11:55:08;;;;;;;6.88;4.90;;;588.80;921.60;;;;;;5091204;28;20358;-75
2021/03/13 11:57:34;;;;;;;5.72;4.65;;;563.70;921.60;;;;;;5088451;28;20039;-76
2021/03/13 12:00:00;;;;;;;7.55;5.72;;;563.20;972.80;;;;;;5089927;28;20020;-75
2021/03/13 12:02:26;;;;;;;8.73;5.38;;;538.40;972.80;;;;;;5088802;28;20069;-76
2021/03/13 12:04:52;;;;;;;9.82;7.57;;;538.10;947.20;;;;;;5090008;28;20044;-75
2021/03/13 12:07:18;;;;;;;7.10;5.20;;;537.90;972.80;;;;;;5088637;28;20092;-76
2021/03/13 12:09:45;;;;;;;5.53;4.20;;;512.90;972.80;;;;;;5088923;28;20035;-75
2021/03/13 12:12:11;;;;;;;9.57;4.97;;;512.60;998.40;;;;;;5115564;28;20036;-75
2021/03/13 12:14:37;;;;;;;10.02;8.00;;;512.20;998.40;;;;;;5112747;28;20046;-76